sensor_id;sensor_type;location;lat;lon;timestamp;temperature;humidity
68922;DHT22;55959;51.244;5.724;2022-07-10T00:02:16;18.70;53.80
68922;DHT22;55959;51.244;5.724;2022-07-10T00:04:42;18.60;53.90
68922;DHT22;55959;51.244;5.724;2022-07-10T00:07:07;18.60;53.90
68922;DHT22;55959;51.244;5.724;2022-07-10T00:09:33;18.60;54.00
68922;DHT22;55959;51.244;5.724;2022-07-10T00:11:59;18.60;54.20
68922;DHT22;55959;51.244;5.724;2022-07-10T00:14:25;18.60;54.30
68922;DHT22;55959;51.244;5.724;2022-07-10T00:16:50;18.50;54.30
68922;DHT22;55959;51.244;5.724;2022-07-10T00:19:16;18.50;54.40
68922;DHT22;55959;51.244;5.724;2022-07-10T00:21:42;18.50;54.40
68922;DHT22;55959;51.244;5.724;2022-07-10T00:24:07;18.50;54.60
68922;DHT22;55959;51.244;5.724;2022-07-10T00:26:35;18.50;54.60
68922;DHT22;55959;51.244;5.724;2022-07-10T00:29:01;18.50;54.70
68922;DHT22;55959;51.244;5.724;2022-07-10T00:31:27;18.50;54.80
68922;DHT22;55959;51.244;5.724;2022-07-10T00:33:53;18.50;55.40
68922;DHT22;55959;51.244;5.724;2022-07-10T00:36:18;18.50;54.80
68922;DHT22;55959;51.244;5.724;2022-07-10T00:38:44;18.50;54.90
68922;DHT22;55959;51.244;5.724;2022-07-10T00:41:10;18.50;55.00
68922;DHT22;55959;51.244;5.724;2022-07-10T00:43:56;18.50;55.00
68922;DHT22;55959;51.244;5.724;2022-07-10T00:46:26;18.50;55.10
68922;DHT22;55959;51.244;5.724;2022-07-10T00:48:54;18.50;55.10
68922;DHT22;55959;51.244;5.724;2022-07-10T00:51:22;18.50;55.10
68922;DHT22;55959;51.244;5.724;2022-07-10T00:53:50;18.50;55.10
68922;DHT22;55959;51.244;5.724;2022-07-10T00:56:18;18.50;55.00
68922;DHT22;55959;51.244;5.724;2022-07-10T00:58:46;18.50;55.00
68922;DHT22;55959;51.244;5.724;2022-07-10T01:01:12;18.50;55.00
68922;DHT22;55959;51.244;5.724;2022-07-10T01:03:38;18.50;55.10
68922;DHT22;55959;51.244;5.724;2022-07-10T01:06:04;18.40;55.20
68922;DHT22;55959;51.244;5.724;2022-07-10T01:08:30;18.40;55.20
68922;DHT22;55959;51.244;5.724;2022-07-10T01:10:57;18.40;55.30
68922;DHT22;55959;51.244;5.724;2022-07-10T01:13:23;18.40;55.30
68922;DHT22;55959;51.244;5.724;2022-07-10T01:15:48;18.40;55.40
68922;DHT22;55959;51.244;5.724;2022-07-10T01:18:15;18.40;55.50
68922;DHT22;55959;51.244;5.724;2022-07-10T01:20:41;18.40;55.50
68922;DHT22;55959;51.244;5.724;2022-07-10T01:23:06;18.40;55.50
68922;DHT22;55959;51.244;5.724;2022-07-10T01:25:32;18.40;55.60
68922;DHT22;55959;51.244;5.724;2022-07-10T01:27:58;18.40;55.60
68922;DHT22;55959;51.244;5.724;2022-07-10T01:30:25;18.40;55.70
68922;DHT22;55959;51.244;5.724;2022-07-10T01:32:51;18.40;55.70
68922;DHT22;55959;51.244;5.724;2022-07-10T01:35:20;18.40;55.90
68922;DHT22;55959;51.244;5.724;2022-07-10T01:37:46;18.30;55.80
68922;DHT22;55959;51.244;5.724;2022-07-10T01:40:12;18.30;55.80
68922;DHT22;55959;51.244;5.724;2022-07-10T01:42:39;18.30;55.90
68922;DHT22;55959;51.244;5.724;2022-07-10T01:45:07;18.30;55.90
68922;DHT22;55959;51.244;5.724;2022-07-10T01:47:33;18.30;55.90
68922;DHT22;55959;51.244;5.724;2022-07-10T01:49:59;18.30;55.90
68922;DHT22;55959;51.244;5.724;2022-07-10T01:52:25;18.20;55.90
68922;DHT22;55959;51.244;5.724;2022-07-10T01:54:51;18.20;55.90
68922;DHT22;55959;51.244;5.724;2022-07-10T01:57:17;18.20;56.00
68922;DHT22;55959;51.244;5.724;2022-07-10T01:59:43;18.20;56.00
68922;DHT22;55959;51.244;5.724;2022-07-10T02:02:09;18.10;56.10
68922;DHT22;55959;51.244;5.724;2022-07-10T02:04:35;18.10;56.10
68922;DHT22;55959;51.244;5.724;2022-07-10T02:07:13;18.10;56.20
68922;DHT22;55959;51.244;5.724;2022-07-10T02:09:40;18.10;56.30
68922;DHT22;55959;51.244;5.724;2022-07-10T02:12:12;18.00;57.00
68922;DHT22;55959;51.244;5.724;2022-07-10T02:14:39;18.00;56.50
68922;DHT22;55959;51.244;5.724;2022-07-10T02:17:06;18.00;56.60
68922;DHT22;55959;51.244;5.724;2022-07-10T02:19:34;17.90;56.70
68922;DHT22;55959;51.244;5.724;2022-07-10T02:22:00;17.90;56.80
68922;DHT22;55959;51.244;5.724;2022-07-10T02:24:26;17.80;56.90
68922;DHT22;55959;51.244;5.724;2022-07-10T02:26:52;17.80;56.90
68922;DHT22;55959;51.244;5.724;2022-07-10T02:29:18;17.70;57.00
68922;DHT22;55959;51.244;5.724;2022-07-10T02:31:44;17.70;57.10
68922;DHT22;55959;51.244;5.724;2022-07-10T02:34:11;17.70;57.20
68922;DHT22;55959;51.244;5.724;2022-07-10T02:36:38;17.70;57.30
68922;DHT22;55959;51.244;5.724;2022-07-10T02:39:05;17.60;57.40
68922;DHT22;55959;51.244;5.724;2022-07-10T02:41:31;17.60;57.40
68922;DHT22;55959;51.244;5.724;2022-07-10T02:43:57;17.50;57.50
68922;DHT22;55959;51.244;5.724;2022-07-10T02:46:24;17.50;57.60
68922;DHT22;55959;51.244;5.724;2022-07-10T02:48:50;17.50;57.70
68922;DHT22;55959;51.244;5.724;2022-07-10T02:51:16;17.50;57.80
68922;DHT22;55959;51.244;5.724;2022-07-10T02:53:42;17.50;57.90
68922;DHT22;55959;51.244;5.724;2022-07-10T02:56:07;17.50;57.90
68922;DHT22;55959;51.244;5.724;2022-07-10T02:58:34;17.50;58.00
68922;DHT22;55959;51.244;5.724;2022-07-10T03:01:00;17.40;58.00
68922;DHT22;55959;51.244;5.724;2022-07-10T03:03:26;17.40;58.00
68922;DHT22;55959;51.244;5.724;2022-07-10T03:05:52;17.40;58.00
68922;DHT22;55959;51.244;5.724;2022-07-10T03:08:18;17.40;58.10
68922;DHT22;55959;51.244;5.724;2022-07-10T03:10:44;17.40;58.20
68922;DHT22;55959;51.244;5.724;2022-07-10T03:13:11;17.40;58.40
68922;DHT22;55959;51.244;5.724;2022-07-10T03:15:37;17.40;58.50
68922;DHT22;55959;51.244;5.724;2022-07-10T03:18:03;17.30;58.40
68922;DHT22;55959;51.244;5.724;2022-07-10T03:20:29;17.40;58.60
68922;DHT22;55959;51.244;5.724;2022-07-10T03:22:55;17.30;58.60
68922;DHT22;55959;51.244;5.724;2022-07-10T03:25:20;17.30;58.80
68922;DHT22;55959;51.244;5.724;2022-07-10T03:27:46;17.30;58.80
68922;DHT22;55959;51.244;5.724;2022-07-10T03:30:12;17.30;58.90
68922;DHT22;55959;51.244;5.724;2022-07-10T03:32:39;17.30;59.00
68922;DHT22;55959;51.244;5.724;2022-07-10T03:35:05;17.30;59.00
68922;DHT22;55959;51.244;5.724;2022-07-10T03:37:30;17.30;59.10
68922;DHT22;55959;51.244;5.724;2022-07-10T03:39:56;17.30;59.10
68922;DHT22;55959;51.244;5.724;2022-07-10T03:42:22;17.30;59.30
68922;DHT22;55959;51.244;5.724;2022-07-10T03:44:48;17.20;59.40
68922;DHT22;55959;51.244;5.724;2022-07-10T03:47:13;17.30;59.40
68922;DHT22;55959;51.244;5.724;2022-07-10T03:49:39;17.20;59.40
68922;DHT22;55959;51.244;5.724;2022-07-10T03:52:06;17.20;59.50
68922;DHT22;55959;51.244;5.724;2022-07-10T03:54:33;17.20;59.60
68922;DHT22;55959;51.244;5.724;2022-07-10T03:56:59;17.20;59.60
68922;DHT22;55959;51.244;5.724;2022-07-10T03:59:43;17.20;59.70
68922;DHT22;55959;51.244;5.724;2022-07-10T04:02:09;17.20;59.80
68922;DHT22;55959;51.244;5.724;2022-07-10T04:04:35;17.20;60.00
68922;DHT22;55959;51.244;5.724;2022-07-10T04:07:01;17.20;59.90
68922;DHT22;55959;51.244;5.724;2022-07-10T04:09:28;17.10;59.90
68922;DHT22;55959;51.244;5.724;2022-07-10T04:11:53;17.10;60.00
68922;DHT22;55959;51.244;5.724;2022-07-10T04:14:19;17.10;60.10
68922;DHT22;55959;51.244;5.724;2022-07-10T04:16:45;17.10;60.30
68922;DHT22;55959;51.244;5.724;2022-07-10T04:19:11;17.10;60.30
68922;DHT22;55959;51.244;5.724;2022-07-10T04:21:36;17.10;60.40
68922;DHT22;55959;51.244;5.724;2022-07-10T04:24:03;17.10;60.40
68922;DHT22;55959;51.244;5.724;2022-07-10T04:26:29;17.00;60.50
68922;DHT22;55959;51.244;5.724;2022-07-10T04:28:55;17.00;60.70
68922;DHT22;55959;51.244;5.724;2022-07-10T04:31:21;17.00;60.70
68922;DHT22;55959;51.244;5.724;2022-07-10T04:33:46;17.00;60.80
68922;DHT22;55959;51.244;5.724;2022-07-10T04:36:12;17.00;60.90
68922;DHT22;55959;51.244;5.724;2022-07-10T04:38:38;17.10;61.10
68922;DHT22;55959;51.244;5.724;2022-07-10T04:41:04;17.00;61.10
68922;DHT22;55959;51.244;5.724;2022-07-10T04:43:30;17.00;61.30
68922;DHT22;55959;51.244;5.724;2022-07-10T04:45:56;17.00;61.30
68922;DHT22;55959;51.244;5.724;2022-07-10T04:48:22;17.00;61.30
68922;DHT22;55959;51.244;5.724;2022-07-10T04:50:48;17.00;61.30
68922;DHT22;55959;51.244;5.724;2022-07-10T04:53:13;17.10;61.40
68922;DHT22;55959;51.244;5.724;2022-07-10T04:55:39;17.00;61.50
68922;DHT22;55959;51.244;5.724;2022-07-10T04:58:05;17.10;61.60
68922;DHT22;55959;51.244;5.724;2022-07-10T05:00:31;17.10;61.70
68922;DHT22;55959;51.244;5.724;2022-07-10T05:02:56;17.10;61.70
68922;DHT22;55959;51.244;5.724;2022-07-10T05:05:22;17.10;61.80
68922;DHT22;55959;51.244;5.724;2022-07-10T05:07:48;17.10;61.80
68922;DHT22;55959;51.244;5.724;2022-07-10T05:10:14;17.10;61.90
68922;DHT22;55959;51.244;5.724;2022-07-10T05:12:40;17.10;61.90
68922;DHT22;55959;51.244;5.724;2022-07-10T05:15:06;17.10;61.90
68922;DHT22;55959;51.244;5.724;2022-07-10T05:17:33;17.20;62.10
68922;DHT22;55959;51.244;5.724;2022-07-10T05:19:59;17.20;62.00
68922;DHT22;55959;51.244;5.724;2022-07-10T05:22:25;17.20;62.00
68922;DHT22;55959;51.244;5.724;2022-07-10T05:24:51;17.30;62.10
68922;DHT22;55959;51.244;5.724;2022-07-10T05:27:17;17.30;62.10
68922;DHT22;55959;51.244;5.724;2022-07-10T05:29:45;17.30;62.00
68922;DHT22;55959;51.244;5.724;2022-07-10T05:32:12;17.30;62.10
68922;DHT22;55959;51.244;5.724;2022-07-10T05:34:38;17.30;62.00
68922;DHT22;55959;51.244;5.724;2022-07-10T05:37:04;17.40;62.00
68922;DHT22;55959;51.244;5.724;2022-07-10T05:39:30;17.40;61.90
68922;DHT22;55959;51.244;5.724;2022-07-10T05:41:56;17.40;62.00
68922;DHT22;55959;51.244;5.724;2022-07-10T05:44:23;17.40;61.90
68922;DHT22;55959;51.244;5.724;2022-07-10T05:46:49;17.40;61.90
68922;DHT22;55959;51.244;5.724;2022-07-10T05:49:15;17.50;62.10
68922;DHT22;55959;51.244;5.724;2022-07-10T05:51:41;17.50;62.10
68922;DHT22;55959;51.244;5.724;2022-07-10T05:54:07;17.50;62.00
68922;DHT22;55959;51.244;5.724;2022-07-10T05:56:34;17.50;62.20
68922;DHT22;55959;51.244;5.724;2022-07-10T05:58:59;17.60;62.20
68922;DHT22;55959;51.244;5.724;2022-07-10T06:01:25;17.60;62.30
68922;DHT22;55959;51.244;5.724;2022-07-10T06:03:51;17.60;62.30
68922;DHT22;55959;51.244;5.724;2022-07-10T06:06:17;17.70;62.50
68922;DHT22;55959;51.244;5.724;2022-07-10T06:08:44;17.70;62.40
68922;DHT22;55959;51.244;5.724;2022-07-10T06:11:10;17.80;63.30
68922;DHT22;55959;51.244;5.724;2022-07-10T06:13:36;17.80;62.30
68922;DHT22;55959;51.244;5.724;2022-07-10T06:16:03;17.90;62.30
68922;DHT22;55959;51.244;5.724;2022-07-10T06:18:32;18.00;62.10
68922;DHT22;55959;51.244;5.724;2022-07-10T06:20:58;18.10;62.10
68922;DHT22;55959;51.244;5.724;2022-07-10T06:23:24;18.10;62.10
68922;DHT22;55959;51.244;5.724;2022-07-10T06:25:50;18.20;62.00
68922;DHT22;55959;51.244;5.724;2022-07-10T06:28:16;18.20;61.90
68922;DHT22;55959;51.244;5.724;2022-07-10T06:30:43;18.30;61.90
68922;DHT22;55959;51.244;5.724;2022-07-10T06:33:10;18.40;61.60
68922;DHT22;55959;51.244;5.724;2022-07-10T06:35:35;18.40;61.40
68922;DHT22;55959;51.244;5.724;2022-07-10T06:38:02;18.50;61.30
68922;DHT22;55959;51.244;5.724;2022-07-10T06:40:29;18.50;61.00
68922;DHT22;55959;51.244;5.724;2022-07-10T06:42:56;18.60;61.00
68922;DHT22;55959;51.244;5.724;2022-07-10T06:45:21;18.60;60.90
68922;DHT22;55959;51.244;5.724;2022-07-10T06:47:47;18.60;60.80
68922;DHT22;55959;51.244;5.724;2022-07-10T06:50:28;18.70;60.90
68922;DHT22;55959;51.244;5.724;2022-07-10T06:52:59;18.70;60.90
68922;DHT22;55959;51.244;5.724;2022-07-10T06:55:25;18.80;60.70
68922;DHT22;55959;51.244;5.724;2022-07-10T06:57:52;18.90;60.80
68922;DHT22;55959;51.244;5.724;2022-07-10T07:00:19;19.00;60.70
68922;DHT22;55959;51.244;5.724;2022-07-10T07:02:45;19.00;60.70
68922;DHT22;55959;51.244;5.724;2022-07-10T07:05:11;19.10;60.60
68922;DHT22;55959;51.244;5.724;2022-07-10T07:07:37;19.10;61.20
68922;DHT22;55959;51.244;5.724;2022-07-10T07:10:04;19.20;60.20
68922;DHT22;55959;51.244;5.724;2022-07-10T07:12:31;19.30;60.10
68922;DHT22;55959;51.244;5.724;2022-07-10T07:14:57;19.40;60.10
68922;DHT22;55959;51.244;5.724;2022-07-10T07:17:22;19.50;60.10
68922;DHT22;55959;51.244;5.724;2022-07-10T07:19:51;19.60;59.60
68922;DHT22;55959;51.244;5.724;2022-07-10T07:22:36;19.60;59.50
68922;DHT22;55959;51.244;5.724;2022-07-10T07:25:21;19.80;59.20
68922;DHT22;55959;51.244;5.724;2022-07-10T07:27:47;19.80;59.00
68922;DHT22;55959;51.244;5.724;2022-07-10T07:30:14;19.90;59.30
68922;DHT22;55959;51.244;5.724;2022-07-10T07:32:41;19.90;59.20
68922;DHT22;55959;51.244;5.724;2022-07-10T07:35:08;20.10;59.10
68922;DHT22;55959;51.244;5.724;2022-07-10T07:37:53;20.10;58.70
68922;DHT22;55959;51.244;5.724;2022-07-10T07:40:21;20.20;58.50
68922;DHT22;55959;51.244;5.724;2022-07-10T07:42:55;20.30;58.40
68922;DHT22;55959;51.244;5.724;2022-07-10T07:45:22;20.40;58.30
68922;DHT22;55959;51.244;5.724;2022-07-10T07:47:50;20.50;57.80
68922;DHT22;55959;51.244;5.724;2022-07-10T07:50:20;20.50;57.90
68922;DHT22;55959;51.244;5.724;2022-07-10T07:52:47;20.60;57.60
68922;DHT22;55959;51.244;5.724;2022-07-10T07:55:14;20.70;57.30
68922;DHT22;55959;51.244;5.724;2022-07-10T07:57:42;20.70;57.10
68922;DHT22;55959;51.244;5.724;2022-07-10T08:00:09;20.80;56.90
68922;DHT22;55959;51.244;5.724;2022-07-10T08:02:36;20.80;56.60
68922;DHT22;55959;51.244;5.724;2022-07-10T08:05:02;20.90;56.70
68922;DHT22;55959;51.244;5.724;2022-07-10T08:07:44;20.90;56.50
68922;DHT22;55959;51.244;5.724;2022-07-10T08:10:19;20.90;56.40
68922;DHT22;55959;51.244;5.724;2022-07-10T08:12:46;21.00;56.70
68922;DHT22;55959;51.244;5.724;2022-07-10T08:15:14;21.00;56.70
68922;DHT22;55959;51.244;5.724;2022-07-10T08:17:41;21.10;56.80
68922;DHT22;55959;51.244;5.724;2022-07-10T08:20:11;21.10;56.60
68922;DHT22;55959;51.244;5.724;2022-07-10T08:22:38;21.20;56.60
68922;DHT22;55959;51.244;5.724;2022-07-10T08:25:05;21.30;56.50
68922;DHT22;55959;51.244;5.724;2022-07-10T08:27:31;21.30;56.00
68922;DHT22;55959;51.244;5.724;2022-07-10T08:29:56;21.30;55.90
68922;DHT22;55959;51.244;5.724;2022-07-10T08:32:22;21.40;55.60
68922;DHT22;55959;51.244;5.724;2022-07-10T08:34:48;21.40;55.70
68922;DHT22;55959;51.244;5.724;2022-07-10T08:37:15;21.50;55.70
68922;DHT22;55959;51.244;5.724;2022-07-10T08:39:41;21.50;55.50
68922;DHT22;55959;51.244;5.724;2022-07-10T08:42:08;21.50;55.30
68922;DHT22;55959;51.244;5.724;2022-07-10T08:44:36;21.50;55.20
68922;DHT22;55959;51.244;5.724;2022-07-10T08:47:03;21.50;55.20
68922;DHT22;55959;51.244;5.724;2022-07-10T08:49:31;21.60;55.20
68922;DHT22;55959;51.244;5.724;2022-07-10T08:52:04;21.60;54.90
68922;DHT22;55959;51.244;5.724;2022-07-10T08:54:32;21.60;54.90
68922;DHT22;55959;51.244;5.724;2022-07-10T08:57:01;21.60;54.80
68922;DHT22;55959;51.244;5.724;2022-07-10T08:59:28;21.60;54.80
68922;DHT22;55959;51.244;5.724;2022-07-10T09:01:55;21.60;54.70
68922;DHT22;55959;51.244;5.724;2022-07-10T09:04:22;21.60;54.70
68922;DHT22;55959;51.244;5.724;2022-07-10T09:06:51;21.50;54.70
68922;DHT22;55959;51.244;5.724;2022-07-10T09:09:19;21.50;54.80
68922;DHT22;55959;51.244;5.724;2022-07-10T09:11:46;21.50;54.80
68922;DHT22;55959;51.244;5.724;2022-07-10T09:14:16;21.50;55.10
68922;DHT22;55959;51.244;5.724;2022-07-10T09:16:50;21.40;55.20
68922;DHT22;55959;51.244;5.724;2022-07-10T09:19:17;21.40;55.00
68922;DHT22;55959;51.244;5.724;2022-07-10T09:21:45;21.40;55.10
68922;DHT22;55959;51.244;5.724;2022-07-10T09:24:11;21.40;55.00
68922;DHT22;55959;51.244;5.724;2022-07-10T09:26:38;21.40;55.10
68922;DHT22;55959;51.244;5.724;2022-07-10T09:29:12;21.40;55.20
68922;DHT22;55959;51.244;5.724;2022-07-10T09:31:54;21.50;55.30
68922;DHT22;55959;51.244;5.724;2022-07-10T09:34:36;21.40;55.10
68922;DHT22;55959;51.244;5.724;2022-07-10T09:39:57;21.40;55.00
68922;DHT22;55959;51.244;5.724;2022-07-10T09:42:44;21.40;55.10
68922;DHT22;55959;51.244;5.724;2022-07-10T09:47:39;21.40;55.30
68922;DHT22;55959;51.244;5.724;2022-07-10T09:50:34;21.40;55.50
68922;DHT22;55959;51.244;5.724;2022-07-10T09:53:03;21.40;55.30
68922;DHT22;55959;51.244;5.724;2022-07-10T09:55:32;21.40;55.40
68922;DHT22;55959;51.244;5.724;2022-07-10T09:58:09;21.40;55.40
68922;DHT22;55959;51.244;5.724;2022-07-10T10:00:40;21.40;55.80
68922;DHT22;55959;51.244;5.724;2022-07-10T10:03:08;21.50;55.70
68922;DHT22;55959;51.244;5.724;2022-07-10T10:05:53;21.50;55.90
68922;DHT22;55959;51.244;5.724;2022-07-10T10:08:25;21.50;56.00
68922;DHT22;55959;51.244;5.724;2022-07-10T10:10:51;21.60;56.00
68922;DHT22;55959;51.244;5.724;2022-07-10T10:13:21;21.70;56.00
68922;DHT22;55959;51.244;5.724;2022-07-10T10:15:49;21.70;55.60
68922;DHT22;55959;51.244;5.724;2022-07-10T10:18:21;21.80;55.70
68922;DHT22;55959;51.244;5.724;2022-07-10T10:20:50;21.80;55.60
68922;DHT22;55959;51.244;5.724;2022-07-10T10:23:22;21.90;55.30
68922;DHT22;55959;51.244;5.724;2022-07-10T10:25:56;21.90;55.30
68922;DHT22;55959;51.244;5.724;2022-07-10T10:28:24;22.00;55.20
68922;DHT22;55959;51.244;5.724;2022-07-10T10:30:53;22.00;55.20
68922;DHT22;55959;51.244;5.724;2022-07-10T10:36:00;22.20;55.50
68922;DHT22;55959;51.244;5.724;2022-07-10T10:41:29;22.30;55.00
68922;DHT22;55959;51.244;5.724;2022-07-10T10:46:55;22.40;54.90
68922;DHT22;55959;51.244;5.724;2022-07-10T10:49:54;22.40;54.20
68922;DHT22;55959;51.244;5.724;2022-07-10T10:52:25;22.50;54.40
68922;DHT22;55959;51.244;5.724;2022-07-10T10:57:43;22.50;54.60
68922;DHT22;55959;51.244;5.724;2022-07-10T11:00:31;22.60;54.70
68922;DHT22;55959;51.244;5.724;2022-07-10T11:03:13;22.70;54.70
68922;DHT22;55959;51.244;5.724;2022-07-10T11:05:43;22.80;53.90
68922;DHT22;55959;51.244;5.724;2022-07-10T11:08:11;22.80;53.60
68922;DHT22;55959;51.244;5.724;2022-07-10T11:10:42;22.90;53.90
68922;DHT22;55959;51.244;5.724;2022-07-10T11:13:13;23.00;53.80
68922;DHT22;55959;51.244;5.724;2022-07-10T11:18:11;23.10;53.10
68922;DHT22;55959;51.244;5.724;2022-07-10T11:20:42;23.10;53.10
68922;DHT22;55959;51.244;5.724;2022-07-10T11:26:04;23.30;53.30
68922;DHT22;55959;51.244;5.724;2022-07-10T11:31:08;23.30;52.70
68922;DHT22;55959;51.244;5.724;2022-07-10T11:33:42;23.40;52.40
68922;DHT22;55959;51.244;5.724;2022-07-10T11:36:15;23.40;52.80
68922;DHT22;55959;51.244;5.724;2022-07-10T11:38:43;23.50;52.50
68922;DHT22;55959;51.244;5.724;2022-07-10T11:41:19;23.50;52.30
68922;DHT22;55959;51.244;5.724;2022-07-10T11:43:52;23.50;52.10
68922;DHT22;55959;51.244;5.724;2022-07-10T11:46:24;23.60;52.40
68922;DHT22;55959;51.244;5.724;2022-07-10T11:48:51;23.70;52.20
68922;DHT22;55959;51.244;5.724;2022-07-10T11:51:42;23.70;52.70
68922;DHT22;55959;51.244;5.724;2022-07-10T11:54:15;23.80;52.50
68922;DHT22;55959;51.244;5.724;2022-07-10T11:56:52;23.80;52.60
68922;DHT22;55959;51.244;5.724;2022-07-10T11:59:23;23.90;52.50
68922;DHT22;55959;51.244;5.724;2022-07-10T12:01:52;24.00;52.20
68922;DHT22;55959;51.244;5.724;2022-07-10T12:04:20;24.00;51.30
68922;DHT22;55959;51.244;5.724;2022-07-10T12:06:51;24.10;51.60
68922;DHT22;55959;51.244;5.724;2022-07-10T12:09:20;24.10;51.50
68922;DHT22;55959;51.244;5.724;2022-07-10T12:12:04;24.20;50.80
68922;DHT22;55959;51.244;5.724;2022-07-10T12:14:32;24.20;51.20
68922;DHT22;55959;51.244;5.724;2022-07-10T12:16:59;24.30;51.40
68922;DHT22;55959;51.244;5.724;2022-07-10T12:19:26;24.30;51.30
68922;DHT22;55959;51.244;5.724;2022-07-10T12:21:55;24.30;50.90
68922;DHT22;55959;51.244;5.724;2022-07-10T12:24:22;24.40;51.40
68922;DHT22;55959;51.244;5.724;2022-07-10T12:26:49;24.40;51.40
68922;DHT22;55959;51.244;5.724;2022-07-10T12:29:25;24.50;51.30
68922;DHT22;55959;51.244;5.724;2022-07-10T12:31:54;24.60;50.80
68922;DHT22;55959;51.244;5.724;2022-07-10T12:34:42;24.70;50.90
68922;DHT22;55959;51.244;5.724;2022-07-10T12:37:09;24.70;50.80
68922;DHT22;55959;51.244;5.724;2022-07-10T12:39:37;24.80;51.30
68922;DHT22;55959;51.244;5.724;2022-07-10T12:42:31;24.90;51.60
68922;DHT22;55959;51.244;5.724;2022-07-10T12:45:13;25.00;50.00
68922;DHT22;55959;51.244;5.724;2022-07-10T12:47:44;25.10;49.50
68922;DHT22;55959;51.244;5.724;2022-07-10T12:50:12;25.20;49.50
68922;DHT22;55959;51.244;5.724;2022-07-10T12:52:42;25.20;49.10
68922;DHT22;55959;51.244;5.724;2022-07-10T13:00:24;25.20;48.60
68922;DHT22;55959;51.244;5.724;2022-07-10T13:02:58;25.20;48.50
68922;DHT22;55959;51.244;5.724;2022-07-10T13:05:36;25.20;48.70
68922;DHT22;55959;51.244;5.724;2022-07-10T13:08:18;25.20;49.20
68922;DHT22;55959;51.244;5.724;2022-07-10T13:10:52;25.10;49.30
68922;DHT22;55959;51.244;5.724;2022-07-10T13:13:19;25.10;49.10
68922;DHT22;55959;51.244;5.724;2022-07-10T13:15:46;25.20;48.90
68922;DHT22;55959;51.244;5.724;2022-07-10T13:18:24;25.20;48.80
68922;DHT22;55959;51.244;5.724;2022-07-10T13:20:54;25.20;49.10
68922;DHT22;55959;51.244;5.724;2022-07-10T13:23:21;25.20;49.30
68922;DHT22;55959;51.244;5.724;2022-07-10T13:25:54;25.30;49.20
68922;DHT22;55959;51.244;5.724;2022-07-10T13:28:20;25.30;49.10
68922;DHT22;55959;51.244;5.724;2022-07-10T13:30:47;25.30;48.60
68922;DHT22;55959;51.244;5.724;2022-07-10T13:33:13;25.40;48.80
68922;DHT22;55959;51.244;5.724;2022-07-10T13:35:39;25.40;48.70
68922;DHT22;55959;51.244;5.724;2022-07-10T13:38:06;25.50;48.70
68922;DHT22;55959;51.244;5.724;2022-07-10T13:40:34;25.50;48.60
68922;DHT22;55959;51.244;5.724;2022-07-10T13:43:01;25.50;48.20
68922;DHT22;55959;51.244;5.724;2022-07-10T13:45:28;25.60;48.10
68922;DHT22;55959;51.244;5.724;2022-07-10T13:48:05;25.60;48.30
68922;DHT22;55959;51.244;5.724;2022-07-10T13:50:31;25.60;48.30
68922;DHT22;55959;51.244;5.724;2022-07-10T13:52:58;25.70;48.40
68922;DHT22;55959;51.244;5.724;2022-07-10T13:55:24;25.80;48.40
68922;DHT22;55959;51.244;5.724;2022-07-10T13:57:49;25.80;48.00
68922;DHT22;55959;51.244;5.724;2022-07-10T14:00:15;25.80;47.40
68922;DHT22;55959;51.244;5.724;2022-07-10T14:02:41;25.80;47.50
68922;DHT22;55959;51.244;5.724;2022-07-10T14:05:07;25.80;47.60
68922;DHT22;55959;51.244;5.724;2022-07-10T14:07:34;25.90;47.80
68922;DHT22;55959;51.244;5.724;2022-07-10T14:10:00;25.80;48.00
68922;DHT22;55959;51.244;5.724;2022-07-10T14:12:26;25.90;47.70
68922;DHT22;55959;51.244;5.724;2022-07-10T14:14:52;25.90;48.00
68922;DHT22;55959;51.244;5.724;2022-07-10T14:17:18;26.00;47.80
68922;DHT22;55959;51.244;5.724;2022-07-10T14:19:43;26.00;47.50
68922;DHT22;55959;51.244;5.724;2022-07-10T14:22:09;26.00;47.50
68922;DHT22;55959;51.244;5.724;2022-07-10T14:24:35;26.00;47.60
68922;DHT22;55959;51.244;5.724;2022-07-10T14:27:01;26.00;47.60
68922;DHT22;55959;51.244;5.724;2022-07-10T14:29:26;26.00;47.90
68922;DHT22;55959;51.244;5.724;2022-07-10T14:31:53;26.00;47.80
68922;DHT22;55959;51.244;5.724;2022-07-10T14:34:18;26.10;47.50
68922;DHT22;55959;51.244;5.724;2022-07-10T14:36:45;26.10;47.10
68922;DHT22;55959;51.244;5.724;2022-07-10T14:39:11;26.10;47.40
68922;DHT22;55959;51.244;5.724;2022-07-10T14:41:40;26.10;47.70
68922;DHT22;55959;51.244;5.724;2022-07-10T14:44:06;26.10;47.60
68922;DHT22;55959;51.244;5.724;2022-07-10T14:46:33;26.10;47.80
68922;DHT22;55959;51.244;5.724;2022-07-10T14:48:59;26.20;47.40
68922;DHT22;55959;51.244;5.724;2022-07-10T14:51:25;26.20;47.40
68922;DHT22;55959;51.244;5.724;2022-07-10T14:53:50;26.30;47.30
68922;DHT22;55959;51.244;5.724;2022-07-10T14:56:16;26.30;46.80
68922;DHT22;55959;51.244;5.724;2022-07-10T14:58:42;26.20;46.90
68922;DHT22;55959;51.244;5.724;2022-07-10T15:01:08;26.20;47.10
68922;DHT22;55959;51.244;5.724;2022-07-10T15:03:34;26.30;46.80
68922;DHT22;55959;51.244;5.724;2022-07-10T15:06:00;26.30;46.90
68922;DHT22;55959;51.244;5.724;2022-07-10T15:08:27;26.30;47.30
68922;DHT22;55959;51.244;5.724;2022-07-10T15:10:52;26.40;46.90
68922;DHT22;55959;51.244;5.724;2022-07-10T15:13:18;26.40;46.30
68922;DHT22;55959;51.244;5.724;2022-07-10T15:15:44;26.40;46.40
68922;DHT22;55959;51.244;5.724;2022-07-10T15:18:10;26.40;46.70
68922;DHT22;55959;51.244;5.724;2022-07-10T15:20:36;26.40;46.40
68922;DHT22;55959;51.244;5.724;2022-07-10T15:23:03;26.30;46.50
68922;DHT22;55959;51.244;5.724;2022-07-10T15:25:29;26.40;46.60
68922;DHT22;55959;51.244;5.724;2022-07-10T15:27:55;26.40;46.60
68922;DHT22;55959;51.244;5.724;2022-07-10T15:30:21;26.40;46.80
68922;DHT22;55959;51.244;5.724;2022-07-10T15:32:47;26.40;46.80
68922;DHT22;55959;51.244;5.724;2022-07-10T15:35:13;26.40;46.80
68922;DHT22;55959;51.244;5.724;2022-07-10T15:37:39;26.50;46.70
68922;DHT22;55959;51.244;5.724;2022-07-10T15:40:06;26.50;46.70
68922;DHT22;55959;51.244;5.724;2022-07-10T15:42:32;26.50;46.10
68922;DHT22;55959;51.244;5.724;2022-07-10T15:44:58;26.50;46.30
68922;DHT22;55959;51.244;5.724;2022-07-10T15:47:24;26.50;46.10
68922;DHT22;55959;51.244;5.724;2022-07-10T15:49:49;26.50;45.60
68922;DHT22;55959;51.244;5.724;2022-07-10T15:52:15;26.50;45.50
68922;DHT22;55959;51.244;5.724;2022-07-10T15:54:41;26.50;45.60
68922;DHT22;55959;51.244;5.724;2022-07-10T15:57:07;26.50;45.80
68922;DHT22;55959;51.244;5.724;2022-07-10T15:59:33;26.50;45.80
68922;DHT22;55959;51.244;5.724;2022-07-10T16:02:00;26.40;45.80
68922;DHT22;55959;51.244;5.724;2022-07-10T16:04:27;26.40;46.10
68922;DHT22;55959;51.244;5.724;2022-07-10T16:06:53;26.40;46.10